createdAt,value
2017-05-31T00:00:37.473Z,0
2017-05-31T00:01:18.053Z,0
2017-05-31T00:01:58.637Z,0
2017-05-31T00:02:39.223Z,0
2017-05-31T00:03:19.811Z,0
2017-05-31T00:04:00.387Z,0
2017-05-31T00:04:40.966Z,0
2017-05-31T00:05:21.553Z,0
2017-05-31T00:06:02.134Z,0
2017-05-31T00:06:42.717Z,0
2017-05-31T00:07:23.326Z,0
2017-05-31T00:08:03.899Z,0
2017-05-31T00:08:44.487Z,0
2017-05-31T00:09:25.075Z,0
2017-05-31T00:10:05.664Z,0
2017-05-31T00:10:46.252Z,0
2017-05-31T00:11:26.836Z,0
2017-05-31T00:12:07.419Z,0
2017-05-31T00:12:48.002Z,0
2017-05-31T00:13:28.612Z,0
2017-05-31T00:14:09.198Z,0
2017-05-31T00:14:49.851Z,0
2017-05-31T00:15:30.376Z,0
2017-05-31T00:16:10.957Z,0
2017-05-31T00:16:51.535Z,0
2017-05-31T00:17:32.107Z,0
2017-05-31T00:18:12.684Z,0
2017-05-31T00:18:53.273Z,0
2017-05-31T00:19:33.847Z,0
2017-05-31T00:20:14.423Z,0
2017-05-31T00:20:55.008Z,0
2017-05-31T00:21:35.589Z,0
2017-05-31T00:22:16.178Z,0
2017-05-31T00:22:56.770Z,0
2017-05-31T00:23:37.350Z,0
2017-05-31T00:24:17.928Z,0
2017-05-31T00:24:58.513Z,0
2017-05-31T00:25:39.096Z,0
2017-05-31T00:26:19.693Z,0
2017-05-31T00:27:00.284Z,0
2017-05-31T00:27:40.867Z,0
2017-05-31T00:28:21.450Z,0
2017-05-31T00:29:02.030Z,0
2017-05-31T00:29:42.622Z,0
2017-05-31T00:30:23.206Z,0
2017-05-31T00:31:03.794Z,0
2017-05-31T00:31:44.378Z,0
2017-05-31T00:32:24.955Z,0
2017-05-31T00:33:05.536Z,0
2017-05-31T00:33:46.124Z,0
2017-05-31T00:34:26.699Z,0
2017-05-31T00:35:07.274Z,0
2017-05-31T00:35:47.848Z,0
2017-05-31T00:36:28.436Z,0
2017-05-31T00:37:09.023Z,0
2017-05-31T00:37:49.609Z,0
2017-05-31T00:38:30.190Z,0
2017-05-31T00:39:10.793Z,0
2017-05-31T00:39:51.384Z,0
2017-05-31T00:40:31.963Z,0
2017-05-31T00:41:12.550Z,0
2017-05-31T00:41:53.132Z,0
2017-05-31T00:42:33.712Z,0
2017-05-31T00:43:14.314Z,0
2017-05-31T00:43:54.890Z,0
2017-05-31T00:44:35.469Z,0
2017-05-31T00:45:16.049Z,0
2017-05-31T00:45:56.617Z,0
2017-05-31T00:46:37.209Z,0
2017-05-31T00:47:17.789Z,0
2017-05-31T00:47:58.367Z,0
2017-05-31T00:48:38.957Z,0
2017-05-31T00:49:19.538Z,0
2017-05-31T00:50:00.120Z,0
2017-05-31T00:50:40.710Z,0
2017-05-31T00:51:21.298Z,0
2017-05-31T00:52:01.889Z,0
2017-05-31T00:52:42.478Z,0
2017-05-31T00:53:23.064Z,0
2017-05-31T00:54:03.661Z,0
2017-05-31T00:54:44.246Z,0
2017-05-31T00:55:24.843Z,0
2017-05-31T00:56:05.421Z,0
2017-05-31T00:56:46.026Z,0
2017-05-31T00:57:26.613Z,0
2017-05-31T00:58:07.203Z,0
2017-05-31T00:58:47.787Z,0
2017-05-31T00:59:28.374Z,0
2017-05-31T01:00:08.964Z,0
2017-05-31T01:00:49.534Z,0
2017-05-31T01:01:30.120Z,0
2017-05-31T01:02:10.706Z,0
2017-05-31T01:02:51.291Z,0
2017-05-31T01:03:31.881Z,0
2017-05-31T01:04:12.468Z,0
2017-05-31T01:04:53.056Z,0
2017-05-31T01:05:33.633Z,0
2017-05-31T01:06:14.206Z,0
2017-05-31T01:06:54.794Z,0
2017-05-31T01:07:35.379Z,0
2017-05-31T01:08:15.967Z,0
2017-05-31T01:08:56.568Z,0
2017-05-31T01:09:37.149Z,0
2017-05-31T01:10:17.725Z,0
2017-05-31T01:10:58.322Z,0
2017-05-31T01:11:38.901Z,0
2017-05-31T01:12:19.507Z,0
2017-05-31T01:13:00.088Z,0
2017-05-31T01:13:40.679Z,0
2017-05-31T01:14:21.276Z,0
2017-05-31T01:15:01.859Z,0
2017-05-31T01:15:42.450Z,0
2017-05-31T01:16:23.028Z,0
2017-05-31T01:17:03.616Z,0
2017-05-31T01:17:44.198Z,0
2017-05-31T01:18:24.811Z,0
2017-05-31T01:19:05.394Z,0
2017-05-31T01:19:45.986Z,0
2017-05-31T01:20:26.573Z,0
2017-05-31T01:21:07.165Z,0
2017-05-31T01:21:47.740Z,0
2017-05-31T01:22:28.328Z,0
2017-05-31T01:23:08.911Z,0
2017-05-31T01:23:49.490Z,0
2017-05-31T01:24:30.069Z,0
2017-05-31T01:25:10.723Z,0
2017-05-31T01:25:51.302Z,0
2017-05-31T01:26:31.874Z,0
2017-05-31T01:27:12.455Z,0
2017-05-31T01:27:53.038Z,0
2017-05-31T01:28:33.623Z,0
2017-05-31T01:29:14.223Z,0
2017-05-31T01:29:54.811Z,0
2017-05-31T01:30:35.393Z,0
2017-05-31T01:31:15.983Z,0
2017-05-31T01:31:56.572Z,0
2017-05-31T01:32:37.147Z,0
2017-05-31T01:33:17.732Z,0
2017-05-31T01:33:58.318Z,0
2017-05-31T01:34:38.897Z,0
2017-05-31T01:35:19.499Z,0
2017-05-31T01:36:00.096Z,0
2017-05-31T01:36:40.693Z,0
2017-05-31T01:37:21.282Z,0
2017-05-31T01:38:01.864Z,0
2017-05-31T01:38:42.448Z,0
2017-05-31T01:39:23.024Z,0
2017-05-31T01:40:03.610Z,0
2017-05-31T01:40:44.201Z,0
2017-05-31T01:41:24.794Z,0
2017-05-31T01:42:05.387Z,0
2017-05-31T01:42:45.964Z,0
2017-05-31T01:43:26.548Z,0
2017-05-31T01:44:07.135Z,0
2017-05-31T01:44:47.724Z,0
2017-05-31T01:45:28.299Z,0
2017-05-31T01:46:08.876Z,0
2017-05-31T01:46:49.459Z,0
2017-05-31T01:47:30.041Z,0
2017-05-31T01:48:10.628Z,0
2017-05-31T01:48:51.220Z,0
2017-05-31T01:49:31.793Z,0
2017-05-31T01:50:12.374Z,0
2017-05-31T01:50:52.959Z,0
2017-05-31T01:51:33.537Z,0
2017-05-31T01:52:14.112Z,0
2017-05-31T01:52:54.703Z,0
2017-05-31T01:53:35.282Z,0
2017-05-31T01:54:15.874Z,0
2017-05-31T01:54:56.449Z,0
2017-05-31T01:55:37.029Z,0
2017-05-31T01:56:17.625Z,0
2017-05-31T01:56:58.209Z,0
2017-05-31T01:57:38.827Z,0
2017-05-31T01:58:19.403Z,0
2017-05-31T01:58:59.982Z,0
2017-05-31T01:59:40.572Z,0
2017-05-31T02:00:21.151Z,0
2017-05-31T02:01:01.742Z,0
2017-05-31T02:01:42.325Z,0
2017-05-31T02:02:22.910Z,0
2017-05-31T02:03:03.491Z,0
2017-05-31T02:03:44.291Z,0
2017-05-31T02:04:24.870Z,0
2017-05-31T02:05:05.458Z,0
2017-05-31T02:05:46.055Z,0
2017-05-31T02:06:26.679Z,0
2017-05-31T02:07:07.257Z,0
2017-05-31T02:07:47.839Z,0
2017-05-31T02:08:28.494Z,0
2017-05-31T02:09:09.025Z,0
2017-05-31T02:09:49.620Z,0
2017-05-31T02:10:30.207Z,0
2017-05-31T02:11:10.808Z,0
2017-05-31T02:11:51.399Z,0
2017-05-31T02:12:31.984Z,0
2017-05-31T02:13:12.582Z,0
2017-05-31T02:13:53.163Z,0
2017-05-31T02:14:33.786Z,0
2017-05-31T02:15:14.373Z,0
2017-05-31T02:15:54.963Z,0
2017-05-31T02:16:35.552Z,0
2017-05-31T02:17:16.142Z,0
2017-05-31T02:17:56.714Z,0
2017-05-31T02:18:37.316Z,0
2017-05-31T02:19:17.899Z,0
2017-05-31T02:19:58.468Z,0
2017-05-31T02:20:39.063Z,0
2017-05-31T02:21:19.643Z,0
2017-05-31T02:22:00.218Z,0
2017-05-31T02:22:40.828Z,0
2017-05-31T02:23:21.416Z,0
2017-05-31T02:24:02.022Z,0
2017-05-31T02:24:42.630Z,0
2017-05-31T02:25:23.211Z,0
2017-05-31T02:26:03.803Z,0
2017-05-31T02:26:44.430Z,0
2017-05-31T02:27:25.013Z,0
2017-05-31T02:28:05.601Z,0
2017-05-31T02:28:46.210Z,0
2017-05-31T02:29:26.785Z,0
2017-05-31T02:30:07.357Z,0
2017-05-31T02:30:47.962Z,0
2017-05-31T02:31:28.544Z,0
2017-05-31T02:32:09.131Z,0
2017-05-31T02:32:49.719Z,0
2017-05-31T02:33:30.300Z,0
2017-05-31T02:34:10.879Z,0
2017-05-31T02:34:51.466Z,0
2017-05-31T02:35:32.055Z,0
2017-05-31T02:36:12.641Z,0
2017-05-31T02:36:53.226Z,0
2017-05-31T02:37:33.813Z,0
2017-05-31T02:38:14.388Z,0
2017-05-31T02:38:54.985Z,0
2017-05-31T02:39:35.561Z,0
2017-05-31T02:40:16.155Z,0
2017-05-31T02:40:56.744Z,0
2017-05-31T02:41:40.441Z,0
2017-05-31T02:42:22.783Z,0
2017-05-31T02:43:05.037Z,0
2017-05-31T02:43:50.328Z,0
2017-05-31T02:44:35.627Z,0
2017-05-31T02:45:18.693Z,0
2017-05-31T02:46:01.514Z,0
2017-05-31T02:46:44.674Z,0
2017-05-31T02:47:26.608Z,0
2017-05-31T02:48:11.012Z,0
2017-05-31T02:49:03.235Z,0
2017-05-31T02:50:00.430Z,0
2017-05-31T02:50:42.412Z,0
2017-05-31T02:51:24.695Z,0
2017-05-31T02:52:06.929Z,0
2017-05-31T02:52:48.822Z,0
2017-05-31T02:53:30.388Z,0
2017-05-31T02:54:11.711Z,0
2017-05-31T02:54:53.706Z,0
2017-05-31T02:55:35.428Z,0
2017-05-31T02:56:19.968Z,0
2017-05-31T02:57:02.091Z,0
2017-05-31T02:57:44.021Z,0
2017-05-31T02:58:25.989Z,0
2017-05-31T02:59:08.112Z,0
2017-05-31T02:59:50.068Z,0
2017-05-31T03:00:30.653Z,0
2017-05-31T03:01:11.236Z,5
2017-05-31T03:01:51.820Z,5
2017-05-31T03:02:32.405Z,5
2017-05-31T03:03:13.009Z,5
2017-05-31T03:03:53.589Z,5
2017-05-31T03:04:34.169Z,5
2017-05-31T03:05:14.749Z,5
2017-05-31T03:05:55.327Z,5
2017-05-31T03:06:35.921Z,5
2017-05-31T03:07:16.501Z,5
2017-05-31T03:07:57.086Z,5
2017-05-31T03:08:37.686Z,5
2017-05-31T03:09:18.290Z,5
2017-05-31T03:09:58.870Z,5
2017-05-31T03:10:39.471Z,5
2017-05-31T03:11:20.049Z,5
2017-05-31T03:12:00.642Z,5
2017-05-31T03:12:41.219Z,5
2017-05-31T03:13:21.826Z,5
2017-05-31T03:14:02.414Z,5
2017-05-31T03:14:42.996Z,5
2017-05-31T03:15:23.579Z,5
2017-05-31T03:16:04.183Z,5
2017-05-31T03:16:44.771Z,5
2017-05-31T03:17:25.375Z,5
2017-05-31T03:18:05.963Z,10
2017-05-31T03:18:46.550Z,10
2017-05-31T03:19:27.135Z,5
2017-05-31T03:20:07.720Z,10
2017-05-31T03:20:48.331Z,10
2017-05-31T03:21:28.940Z,10
2017-05-31T03:22:09.537Z,10
2017-05-31T03:22:50.127Z,10
2017-05-31T03:23:30.709Z,10
2017-05-31T03:24:11.302Z,15
2017-05-31T03:24:51.892Z,15
2017-05-31T03:25:32.498Z,15
2017-05-31T03:26:13.093Z,15
2017-05-31T03:26:53.713Z,15
2017-05-31T03:27:34.287Z,15
2017-05-31T03:28:14.859Z,15
2017-05-31T03:28:55.446Z,15
2017-05-31T03:29:36.018Z,15
2017-05-31T03:30:16.620Z,15
2017-05-31T03:30:57.217Z,15
2017-05-31T03:31:37.808Z,15
2017-05-31T03:32:18.402Z,15
2017-05-31T03:32:58.990Z,15
2017-05-31T03:33:39.659Z,15
2017-05-31T03:34:20.256Z,15
2017-05-31T03:35:00.840Z,15
2017-05-31T03:35:41.425Z,15
2017-05-31T03:36:22.013Z,15
2017-05-31T03:37:02.593Z,10
2017-05-31T03:37:43.175Z,10
2017-05-31T03:38:23.746Z,10
2017-05-31T03:39:04.335Z,10
2017-05-31T03:39:44.911Z,10
2017-05-31T03:40:25.494Z,10
2017-05-31T03:41:06.091Z,10
2017-05-31T03:41:46.698Z,10
2017-05-31T03:42:27.278Z,10
2017-05-31T03:43:07.857Z,10
2017-05-31T03:43:48.484Z,10
2017-05-31T03:44:29.085Z,10
2017-05-31T03:45:09.666Z,10
2017-05-31T03:45:50.302Z,10
2017-05-31T03:46:30.847Z,10
2017-05-31T03:47:11.425Z,10
2017-05-31T03:47:51.997Z,10
2017-05-31T03:48:32.578Z,10
2017-05-31T03:49:13.165Z,10
2017-05-31T03:49:53.756Z,10
2017-05-31T03:50:34.361Z,10
2017-05-31T03:51:14.959Z,10
2017-05-31T03:51:55.549Z,10
2017-05-31T03:52:36.144Z,10
2017-05-31T03:53:16.737Z,10
2017-05-31T03:53:57.350Z,10
2017-05-31T03:54:37.926Z,15
2017-05-31T03:55:18.504Z,15
2017-05-31T03:56:56.966Z,15
2017-05-31T03:58:08.404Z,15
2017-05-31T03:58:49.005Z,15
2017-05-31T03:59:29.576Z,15
2017-05-31T04:00:59.082Z,15
2017-05-31T04:02:08.665Z,15
2017-05-31T04:02:49.240Z,15
2017-05-31T04:03:29.823Z,15
2017-05-31T04:04:10.416Z,15
2017-05-31T04:04:51.035Z,10
2017-05-31T04:05:31.625Z,10
2017-05-31T04:06:12.205Z,10
2017-05-31T04:06:52.782Z,10
2017-05-31T04:07:33.373Z,10
2017-05-31T04:08:13.966Z,10
2017-05-31T04:08:54.558Z,10
2017-05-31T04:09:35.139Z,10
2017-05-31T04:10:15.755Z,10
2017-05-31T04:10:56.311Z,10
2017-05-31T04:11:36.906Z,10
2017-05-31T04:12:17.490Z,10
2017-05-31T04:12:58.090Z,10
2017-05-31T04:13:38.664Z,10
2017-05-31T04:14:19.264Z,10
2017-05-31T04:14:59.848Z,10
2017-05-31T04:15:40.416Z,10
2017-05-31T04:16:20.998Z,10
2017-05-31T04:17:01.600Z,10
2017-05-31T04:17:42.176Z,10
2017-05-31T04:18:22.745Z,10
2017-05-31T04:19:03.338Z,10
2017-05-31T04:19:43.913Z,10
2017-05-31T04:20:24.485Z,10
2017-05-31T04:21:05.084Z,10
2017-05-31T04:21:45.661Z,10
2017-05-31T04:22:26.255Z,10
2017-05-31T04:23:06.870Z,10
2017-05-31T04:23:47.455Z,15
2017-05-31T04:24:28.033Z,15
2017-05-31T04:25:08.611Z,15
2017-05-31T04:25:49.199Z,15
2017-05-31T04:26:29.783Z,15
2017-05-31T04:27:10.362Z,15
2017-05-31T04:27:50.963Z,20
2017-05-31T04:28:31.542Z,20
2017-05-31T04:29:12.126Z,25
2017-05-31T04:29:52.707Z,25
2017-05-31T04:30:33.289Z,25
2017-05-31T04:31:13.885Z,25
2017-05-31T04:31:54.486Z,25
2017-05-31T04:32:35.073Z,25
2017-05-31T04:33:15.663Z,25
2017-05-31T04:33:56.264Z,25
2017-05-31T04:34:36.868Z,25
2017-05-31T04:35:17.455Z,25
2017-05-31T04:35:58.058Z,25
2017-05-31T04:36:38.649Z,20
2017-05-31T04:37:19.229Z,20
2017-05-31T04:37:59.809Z,20
2017-05-31T04:38:40.397Z,20
2017-05-31T04:39:20.978Z,25
2017-05-31T04:40:01.566Z,30
2017-05-31T04:40:42.216Z,45
2017-05-31T04:41:22.794Z,50
2017-05-31T04:42:03.381Z,60
2017-05-31T04:42:43.977Z,50
2017-05-31T04:43:24.568Z,45
2017-05-31T04:44:05.154Z,35
2017-05-31T04:44:45.743Z,35
2017-05-31T04:45:26.323Z,35
2017-05-31T04:46:06.923Z,35
2017-05-31T04:46:47.516Z,40
2017-05-31T04:47:28.139Z,40
2017-05-31T04:48:08.725Z,35
2017-05-31T04:48:49.313Z,35
2017-05-31T04:49:29.907Z,40
2017-05-31T04:50:10.489Z,45
2017-05-31T04:50:51.073Z,50
2017-05-31T04:51:31.673Z,50
2017-05-31T04:52:12.261Z,50
2017-05-31T04:52:52.849Z,55
2017-05-31T04:53:33.431Z,55
2017-05-31T04:54:14.034Z,55
2017-05-31T04:54:54.627Z,55
2017-05-31T04:55:35.204Z,50
2017-05-31T04:56:15.785Z,50
2017-05-31T04:56:56.361Z,50
2017-05-31T04:57:36.945Z,50
2017-05-31T04:58:17.533Z,50
2017-05-31T04:58:58.118Z,50
2017-05-31T04:59:38.698Z,50
2017-05-31T05:00:19.275Z,50
2017-05-31T05:00:59.856Z,55
2017-05-31T05:01:40.447Z,55
2017-05-31T05:02:21.027Z,55
2017-05-31T05:03:01.601Z,55
2017-05-31T05:03:42.181Z,55
2017-05-31T05:04:22.793Z,55
2017-05-31T05:05:03.371Z,55
2017-05-31T05:05:43.958Z,50
2017-05-31T05:06:24.539Z,50
2017-05-31T05:07:05.125Z,50
2017-05-31T05:07:45.715Z,50
2017-05-31T05:08:26.303Z,45
2017-05-31T05:09:06.890Z,40
2017-05-31T05:09:47.499Z,40
2017-05-31T05:10:28.080Z,45
2017-05-31T05:11:08.654Z,45
2017-05-31T05:11:49.246Z,45
2017-05-31T05:12:29.830Z,45
2017-05-31T05:13:10.424Z,55
2017-05-31T05:13:50.994Z,55
2017-05-31T05:14:31.607Z,55
2017-05-31T05:15:12.251Z,55
2017-05-31T05:15:52.833Z,65
2017-05-31T05:16:33.421Z,95
2017-05-31T05:17:13.999Z,120
2017-05-31T05:17:54.587Z,150
2017-05-31T05:18:35.204Z,135
2017-05-31T05:19:15.776Z,170
2017-05-31T05:19:56.374Z,195
2017-05-31T05:20:36.953Z,185
2017-05-31T05:21:17.531Z,110
2017-05-31T05:21:58.115Z,110
2017-05-31T05:22:38.709Z,100
2017-05-31T05:23:19.317Z,190
2017-05-31T05:23:59.892Z,230
2017-05-31T05:24:40.477Z,190
2017-05-31T05:25:21.053Z,170
2017-05-31T05:26:01.658Z,190
2017-05-31T05:26:42.259Z,670
2017-05-31T05:27:22.845Z,810
2017-05-31T05:28:03.450Z,895
2017-05-31T05:28:44.173Z,475
2017-05-31T05:29:24.753Z,1040
2017-05-31T05:30:05.357Z,1015
2017-05-31T05:30:46.007Z,925
2017-05-31T05:31:26.602Z,990
2017-05-31T05:32:07.216Z,915
2017-05-31T05:32:47.804Z,165
2017-05-31T05:33:28.463Z,790
2017-05-31T05:34:09.229Z,595
2017-05-31T05:34:49.905Z,250
2017-05-31T05:35:30.510Z,1075
2017-05-31T05:36:11.132Z,1090
2017-05-31T05:36:51.727Z,1040
2017-05-31T05:37:32.380Z,1105
2017-05-31T05:38:12.971Z,1100
2017-05-31T05:38:53.574Z,1225
2017-05-31T05:39:34.153Z,985
2017-05-31T05:40:14.761Z,745
2017-05-31T05:40:55.385Z,185
2017-05-31T05:41:35.963Z,205
2017-05-31T05:42:16.635Z,175
2017-05-31T05:42:57.241Z,165
2017-05-31T05:43:37.868Z,145
2017-05-31T05:44:18.464Z,145
2017-05-31T05:44:59.059Z,300
2017-05-31T05:45:39.671Z,630
2017-05-31T05:46:20.292Z,1245
2017-05-31T05:47:00.908Z,1180
2017-05-31T05:47:41.501Z,1195
2017-05-31T05:48:22.098Z,410
2017-05-31T05:49:02.703Z,325
2017-05-31T05:49:43.365Z,1085
2017-05-31T05:50:23.903Z,1155
2017-05-31T05:51:04.522Z,1295
2017-05-31T05:51:45.138Z,345
2017-05-31T05:52:25.716Z,350
2017-05-31T05:53:06.314Z,1260
2017-05-31T05:53:46.908Z,1375
2017-05-31T05:54:27.519Z,1385
2017-05-31T05:55:08.117Z,1330
2017-05-31T05:55:50.030Z,1405
2017-05-31T05:56:31.545Z,1355
2017-05-31T05:57:13.128Z,1320
2017-05-31T05:57:53.739Z,870
2017-05-31T05:58:34.427Z,1420
2017-05-31T05:59:15.161Z,1415
2017-05-31T05:59:55.896Z,1445
2017-05-31T06:00:36.996Z,1510
2017-05-31T06:01:17.398Z,1505
2017-05-31T06:01:58.025Z,1135
2017-05-31T06:02:38.659Z,1460
2017-05-31T06:03:19.308Z,1495
2017-05-31T06:04:00.002Z,1580
2017-05-31T06:04:40.588Z,1535
2017-05-31T06:05:21.212Z,1485
2017-05-31T06:06:01.815Z,1510
2017-05-31T06:06:43.406Z,1545
2017-05-31T06:07:24.038Z,1570
2017-05-31T06:08:04.639Z,645
2017-05-31T06:08:45.221Z,1635
2017-05-31T06:09:26.199Z,1660
2017-05-31T06:10:06.814Z,1155
2017-05-31T06:10:47.406Z,330
2017-05-31T06:11:28.002Z,230
2017-05-31T06:12:08.750Z,200
2017-05-31T06:12:49.355Z,1580
2017-05-31T06:13:29.961Z,1565
2017-05-31T06:14:10.577Z,1635
2017-05-31T06:14:51.193Z,1150
2017-05-31T06:15:31.792Z,1385
2017-05-31T06:16:17.778Z,1640
2017-05-31T06:16:59.428Z,1620
2017-05-31T06:17:40.021Z,1645
2017-05-31T06:18:20.603Z,1660
2017-05-31T06:19:01.186Z,1680
2017-05-31T06:19:44.700Z,1580
2017-05-31T06:20:25.413Z,1535
2017-05-31T06:21:05.997Z,1540
2017-05-31T06:21:46.587Z,1610
2017-05-31T06:22:27.205Z,1040
2017-05-31T06:23:07.774Z,1735
2017-05-31T06:23:48.366Z,1320
2017-05-31T06:24:28.958Z,915
2017-05-31T06:25:09.558Z,470
2017-05-31T06:25:51.310Z,1545
2017-05-31T06:26:31.897Z,1245
2017-05-31T06:27:12.488Z,1505
2017-05-31T06:27:53.105Z,1545
2017-05-31T06:28:33.701Z,1515
2017-05-31T06:29:14.302Z,1515
2017-05-31T06:29:56.112Z,905
2017-05-31T06:30:36.725Z,1045
2017-05-31T06:31:17.353Z,1685
2017-05-31T06:31:57.934Z,1645
2017-05-31T06:32:38.540Z,1685
2017-05-31T06:33:19.136Z,1730
2017-05-31T06:33:59.739Z,1770
2017-05-31T06:34:40.321Z,1745
2017-05-31T06:35:20.947Z,1765
2017-05-31T06:36:01.533Z,1570
2017-05-31T06:36:42.128Z,1700
2017-05-31T06:37:22.724Z,1105
2017-05-31T06:38:03.317Z,1715
2017-05-31T06:38:43.919Z,265
2017-05-31T06:39:26.179Z,295
2017-05-31T06:40:11.251Z,930
2017-05-31T06:40:52.745Z,365
2017-05-31T06:41:33.336Z,265
2017-05-31T06:42:15.645Z,240
2017-05-31T06:42:59.847Z,345
2017-05-31T06:43:43.116Z,620
2017-05-31T06:44:27.015Z,555
2017-05-31T06:45:37.599Z,1650
2017-05-31T06:46:19.539Z,1725
2017-05-31T06:47:01.311Z,950
2017-05-31T06:47:43.817Z,255
2017-05-31T06:48:24.413Z,170
2017-05-31T06:49:04.996Z,230
2017-05-31T06:49:45.606Z,1220
2017-05-31T06:50:26.192Z,155
2017-05-31T06:51:06.785Z,140
2017-05-31T06:51:47.384Z,350
2017-05-31T06:52:27.986Z,1565
2017-05-31T06:53:08.573Z,1630
2017-05-31T06:53:49.177Z,470
2017-05-31T06:54:29.789Z,1700
2017-05-31T06:55:10.397Z,395
2017-05-31T06:55:50.987Z,1675
2017-05-31T06:56:31.569Z,1705
2017-05-31T06:57:12.157Z,1745
2017-05-31T06:57:52.733Z,1800
2017-05-31T06:58:33.392Z,695
2017-05-31T06:59:13.971Z,1735
2017-05-31T06:59:54.571Z,1730
2017-05-31T07:00:35.170Z,1715
2017-05-31T07:01:21.714Z,325
2017-05-31T07:02:03.177Z,1650
2017-05-31T07:02:43.760Z,1405
2017-05-31T07:03:24.341Z,365
2017-05-31T07:04:04.928Z,1355
2017-05-31T07:04:45.527Z,420
2017-05-31T07:05:26.130Z,1340
2017-05-31T07:06:06.739Z,1155
2017-05-31T07:06:47.329Z,240
2017-05-31T07:07:27.930Z,220
2017-05-31T07:08:11.495Z,895
2017-05-31T07:08:52.108Z,375
2017-05-31T07:09:32.693Z,815
2017-05-31T07:10:16.521Z,850
2017-05-31T07:11:00.382Z,835
2017-05-31T07:11:42.753Z,815
2017-05-31T07:12:25.043Z,770
2017-05-31T07:13:09.643Z,740
2017-05-31T07:13:50.251Z,710
2017-05-31T07:14:30.843Z,710
2017-05-31T07:15:17.153Z,685
2017-05-31T07:15:57.827Z,695
2017-05-31T07:16:38.414Z,710
2017-05-31T07:17:19.013Z,635
2017-05-31T07:17:59.592Z,340
2017-05-31T07:18:40.197Z,650
2017-05-31T07:19:20.818Z,495
2017-05-31T07:20:01.424Z,345
2017-05-31T07:20:42.017Z,305
2017-05-31T07:21:22.619Z,205
2017-05-31T07:22:04.901Z,145
2017-05-31T07:22:45.496Z,105
2017-05-31T07:23:26.121Z,80
2017-05-31T07:24:06.737Z,60
2017-05-31T07:24:47.324Z,55
2017-05-31T07:25:27.910Z,50
2017-05-31T07:26:13.334Z,50
2017-05-31T07:26:54.390Z,45
2017-05-31T07:27:36.687Z,45
2017-05-31T07:28:17.362Z,45
2017-05-31T07:28:57.971Z,45
2017-05-31T07:29:39.423Z,45
2017-05-31T07:30:22.839Z,45
2017-05-31T07:31:03.436Z,45
2017-05-31T07:31:44.025Z,50
2017-05-31T07:32:24.618Z,50
2017-05-31T07:33:05.198Z,55
2017-05-31T07:33:45.784Z,60
2017-05-31T07:34:26.374Z,70
2017-05-31T07:35:11.951Z,75
2017-05-31T07:35:53.644Z,70
2017-05-31T07:36:34.232Z,60
2017-05-31T07:37:14.821Z,60
2017-05-31T07:37:55.420Z,70
2017-05-31T07:38:44.228Z,100
2017-05-31T07:39:24.884Z,470
2017-05-31T07:40:05.556Z,235
2017-05-31T07:40:46.149Z,300
2017-05-31T07:41:26.735Z,260
2017-05-31T07:42:09.591Z,215
2017-05-31T07:42:51.978Z,205
2017-05-31T07:43:32.561Z,225
2017-05-31T07:44:13.188Z,165
2017-05-31T07:44:53.752Z,140
2017-05-31T07:45:34.339Z,125
2017-05-31T07:46:14.919Z,95
2017-05-31T07:46:56.659Z,65
2017-05-31T07:47:37.266Z,50
2017-05-31T07:48:17.887Z,50
2017-05-31T07:49:01.175Z,50
2017-05-31T07:49:41.769Z,55
2017-05-31T07:50:22.346Z,70
2017-05-31T07:51:02.929Z,110
2017-05-31T07:51:43.572Z,510
2017-05-31T07:52:27.979Z,530
2017-05-31T07:53:08.562Z,535
2017-05-31T07:53:49.156Z,535
2017-05-31T07:54:29.786Z,530
2017-05-31T07:55:10.455Z,520
2017-05-31T07:55:51.034Z,520
2017-05-31T07:56:31.769Z,520
2017-05-31T07:57:12.373Z,425
2017-05-31T07:57:52.987Z,360
2017-05-31T07:58:33.578Z,235
2017-05-31T07:59:14.176Z,470
2017-05-31T07:59:55.129Z,245
2017-05-31T08:00:35.734Z,185
2017-05-31T08:01:16.333Z,150
2017-05-31T08:01:56.929Z,125
2017-05-31T08:02:37.518Z,375
2017-05-31T08:03:18.111Z,280
2017-05-31T08:03:58.700Z,425
2017-05-31T08:04:39.294Z,270
2017-05-31T08:05:19.891Z,430
2017-05-31T08:06:01.204Z,435
2017-05-31T08:06:41.802Z,435
2017-05-31T08:07:22.380Z,400
2017-05-31T08:08:02.948Z,325
2017-05-31T08:08:48.022Z,390
2017-05-31T08:09:32.825Z,380
2017-05-31T08:10:14.272Z,370
2017-05-31T08:10:54.887Z,365
2017-05-31T08:11:35.620Z,365
2017-05-31T08:12:16.260Z,365
2017-05-31T08:12:56.853Z,190
2017-05-31T08:13:37.445Z,355
2017-05-31T08:14:18.040Z,365
2017-05-31T08:14:58.630Z,350
2017-05-31T08:15:39.218Z,340
2017-05-31T08:16:19.806Z,330
2017-05-31T08:17:00.388Z,325
2017-05-31T08:17:40.968Z,340
2017-05-31T08:18:21.569Z,355
2017-05-31T08:19:02.158Z,360
2017-05-31T08:19:42.806Z,310
2017-05-31T08:20:23.400Z,225
2017-05-31T08:21:03.997Z,175
2017-05-31T08:21:44.589Z,155
2017-05-31T08:22:25.187Z,260
2017-05-31T08:23:05.800Z,150
2017-05-31T08:23:46.384Z,110
2017-05-31T08:24:26.966Z,75
2017-05-31T08:25:07.548Z,55
2017-05-31T08:25:48.157Z,45
2017-05-31T08:26:28.776Z,40
2017-05-31T08:27:09.366Z,45
2017-05-31T08:27:49.937Z,50
2017-05-31T08:28:30.533Z,55
2017-05-31T08:29:11.116Z,55
2017-05-31T08:29:51.704Z,50
2017-05-31T08:30:32.302Z,45
2017-05-31T08:31:12.896Z,50
2017-05-31T08:31:53.517Z,50
2017-05-31T08:32:34.100Z,45
2017-05-31T08:33:14.690Z,45
2017-05-31T08:33:55.281Z,55
2017-05-31T08:34:35.870Z,190
2017-05-31T08:35:16.447Z,235
2017-05-31T08:35:57.034Z,265
2017-05-31T08:36:37.647Z,265
2017-05-31T08:37:18.233Z,255
2017-05-31T08:37:58.866Z,240
2017-05-31T08:38:39.459Z,230
2017-05-31T08:39:20.057Z,220
2017-05-31T08:40:00.644Z,195
2017-05-31T08:40:41.225Z,210
2017-05-31T08:41:21.903Z,220
2017-05-31T08:42:02.523Z,225
2017-05-31T08:42:43.139Z,220
2017-05-31T08:43:23.719Z,220
2017-05-31T08:44:04.364Z,220
2017-05-31T08:44:45.006Z,210
2017-05-31T08:45:25.610Z,215
2017-05-31T08:46:06.236Z,220
2017-05-31T08:46:46.849Z,215
2017-05-31T08:47:27.453Z,130
2017-05-31T08:48:08.037Z,115
2017-05-31T08:48:48.625Z,200
2017-05-31T08:49:29.216Z,215
2017-05-31T08:50:09.836Z,175
2017-05-31T08:50:50.462Z,210
2017-05-31T08:51:31.079Z,150
2017-05-31T08:52:11.695Z,155
2017-05-31T08:52:52.306Z,230
2017-05-31T08:53:32.901Z,240
2017-05-31T08:54:13.497Z,190
2017-05-31T08:54:54.083Z,235
2017-05-31T08:55:34.673Z,225
2017-05-31T08:56:15.277Z,255
2017-05-31T08:56:55.885Z,230
2017-05-31T08:57:36.459Z,225
2017-05-31T08:58:17.049Z,230
2017-05-31T08:58:57.637Z,170
2017-05-31T08:59:38.259Z,245
2017-05-31T09:00:18.833Z,240
2017-05-31T09:00:59.410Z,180
2017-05-31T09:01:39.998Z,230
2017-05-31T09:02:20.574Z,235
2017-05-31T09:03:01.202Z,230
2017-05-31T09:03:41.792Z,235
2017-05-31T09:04:22.386Z,240
2017-05-31T09:05:02.980Z,235
2017-05-31T09:05:43.570Z,180
2017-05-31T09:06:24.159Z,165
2017-05-31T09:07:04.747Z,165
2017-05-31T09:07:45.331Z,160
2017-05-31T09:08:25.932Z,140
2017-05-31T09:09:06.538Z,130
2017-05-31T09:09:47.136Z,155
2017-05-31T09:10:27.720Z,140
2017-05-31T09:11:08.319Z,160
2017-05-31T09:11:48.911Z,185
2017-05-31T09:12:29.483Z,160
2017-05-31T09:13:10.062Z,155
2017-05-31T09:13:50.652Z,205
2017-05-31T09:14:31.236Z,155
2017-05-31T09:15:11.822Z,185
2017-05-31T09:15:52.419Z,140
2017-05-31T09:16:33.019Z,120
2017-05-31T09:17:13.622Z,110
2017-05-31T09:17:54.228Z,105
2017-05-31T09:18:34.820Z,105
2017-05-31T09:19:15.441Z,110
2017-05-31T09:19:56.027Z,110
2017-05-31T09:20:36.627Z,110
2017-05-31T09:21:17.215Z,150
2017-05-31T09:21:57.821Z,130
2017-05-31T09:22:38.436Z,150
2017-05-31T09:23:19.040Z,135
2017-05-31T09:23:59.637Z,135
2017-05-31T09:24:40.218Z,140
2017-05-31T09:25:21.062Z,135
2017-05-31T09:26:01.641Z,155
2017-05-31T09:26:42.234Z,140
2017-05-31T09:27:22.821Z,135
2017-05-31T09:28:03.412Z,130
2017-05-31T09:28:44.004Z,145
2017-05-31T09:29:25.238Z,150
2017-05-31T09:30:05.869Z,200
2017-05-31T09:30:46.490Z,190
2017-05-31T09:31:27.094Z,200
2017-05-31T09:32:07.681Z,160
2017-05-31T09:32:48.285Z,165
2017-05-31T09:33:28.885Z,150
2017-05-31T09:34:09.481Z,160
2017-05-31T09:34:50.075Z,155
2017-05-31T09:35:30.654Z,150
2017-05-31T09:36:11.259Z,145
2017-05-31T09:36:51.840Z,150
2017-05-31T09:37:32.442Z,180
2017-05-31T09:38:13.050Z,140
2017-05-31T09:38:53.653Z,140
2017-05-31T09:39:34.244Z,140
2017-05-31T09:40:14.826Z,150
2017-05-31T09:40:55.416Z,155
2017-05-31T09:41:36.017Z,155
2017-05-31T09:42:16.614Z,150